Time;durP1;ratioP1;P1;durP2;ratioP2;P2;SDS_P1;SDS_P2;PMS_P1;PMS_P2;Temp;Humidity;BMP_temperature;BMP_pressure;BME280_temperature;BME280_humidity;BME280_pressure;Samples;Min_cycle;Max_cycle;Signal;HPM_P1;HPM_P2
2022/03/18 00:00:35;;;;;;;5.00;1.50;;;;;;;14.07;40.16;101190.13;5029432;28;20568;-69
2022/03/18 00:03:03;;;;;;;5.53;2.50;;;;;;;14.27;40.31;101229.34;5032272;28;20072;-69
2022/03/18 00:05:32;;;;;;;6.47;1.90;;;;;;;14.49;40.21;101244.94;5021229;28;20136;-69
2022/03/18 00:07:59;;;;;;;4.80;1.77;;;;;;;14.34;40.27;101232.66;5028008;28;20080;-69
2022/03/18 00:10:26;;;;;;;3.87;1.90;;;;;;;14.40;40.61;101239.94;5030479;28;20479;-69
2022/03/18 00:12:53;;;;;;;6.63;2.20;;;;;;;14.43;40.64;101252.59;5024225;28;20065;-69
2022/03/18 00:15:23;;;;;;;4.57;1.87;;;;;;;14.43;40.66;101245.00;5028313;28;20428;-69
2022/03/18 00:17:51;;;;;;;4.07;1.42;;;;;;;14.22;40.85;101218.09;5032986;28;20081;-70
2022/03/18 00:20:18;;;;;;;2.80;1.10;;;;;;;14.19;40.73;101215.91;5026575;28;20133;-70
2022/03/18 00:22:47;;;;;;;4.53;1.60;;;;;;;14.34;40.92;101238.28;5028580;28;20052;-70
2022/03/18 00:25:17;;;;;;;5.13;1.60;;;;;;;14.17;40.89;101233.03;5026053;28;20559;-70
2022/03/18 00:27:46;;;;;;;5.73;1.93;;;;;;;13.98;40.80;101216.00;5029378;28;20140;-71
2022/03/18 00:30:16;;;;;;;4.00;1.40;;;;;;;14.11;40.58;101224.91;5030935;28;20448;-69
2022/03/18 00:32:44;;;;;;;7.13;1.67;;;;;;;14.16;40.52;101241.75;5028481;28;20041;-70
2022/03/18 00:35:31;;;;;;;3.80;1.40;;;;;;;14.08;40.79;101217.06;5026339;28;20500;-71
2022/03/18 00:38:02;;;;;;;4.93;1.60;;;;;;;13.84;40.77;101183.19;5033683;28;20134;-70
2022/03/18 00:40:30;;;;;;;7.80;2.03;;;;;;;14.03;40.73;101211.50;5032788;28;20140;-69
2022/03/18 00:42:56;;;;;;;3.63;1.67;;;;;;;13.99;40.72;101205.59;5030438;28;20488;-70
2022/03/18 00:45:24;;;;;;;4.00;1.70;;;;;;;13.99;40.74;101203.63;5031702;28;20083;-70
2022/03/18 00:53:22;;;;;;;2.67;1.40;;;;;;;13.97;40.70;101217.09;5028297;28;20077;-69
2022/03/18 00:55:48;;;;;;;9.03;1.57;;;;;;;13.97;40.58;101208.69;5030354;28;20139;-69
2022/03/18 00:58:15;;;;;;;6.57;1.40;;;;;;;13.86;40.76;101193.03;5032018;28;20160;-70
2022/03/18 01:00:42;;;;;;;9.27;1.37;;;;;;;13.88;40.33;101207.63;5048443;28;20149;-69
2022/03/18 01:03:09;;;;;;;5.07;1.23;;;;;;;13.82;40.71;101205.13;5030810;28;20459;-73
2022/03/18 01:05:36;;;;;;;5.13;1.10;;;;;;;13.80;40.72;101207.34;5034864;28;20118;-72
2022/03/18 01:08:03;;;;;;;4.23;1.40;;;;;;;13.81;40.66;101218.31;5019300;28;20053;-72
2022/03/18 01:10:32;;;;;;;4.97;1.17;;;;;;;13.77;40.59;101194.72;5022460;28;20085;-73
2022/03/18 01:12:59;;;;;;;7.73;2.13;;;;;;;13.86;40.56;101209.88;5026756;28;20132;-71
2022/03/18 01:15:26;;;;;;;6.93;1.40;;;;;;;13.85;40.55;101201.75;5029696;28;20092;-72
2022/03/18 01:17:52;;;;;;;7.30;1.83;;;;;;;13.63;40.60;101172.03;5033919;28;20052;-71
2022/03/18 01:20:19;;;;;;;7.13;2.00;;;;;;;13.80;40.76;101199.78;5027175;28;20045;-71
2022/03/18 01:22:46;;;;;;;2.97;1.17;;;;;;;13.88;40.86;101206.75;5023513;28;20045;-70
2022/03/18 01:25:13;;;;;;;4.00;1.10;;;;;;;13.83;40.69;101192.75;5029515;28;20131;-70
2022/03/18 01:27:40;;;;;;;5.93;1.27;;;;;;;13.80;40.86;101205.38;5025500;28;20072;-71
2022/03/18 01:30:08;;;;;;;3.50;1.00;;;;;;;13.78;40.70;101189.94;5029281;28;20076;-70
2022/03/18 01:32:35;;;;;;;1.23;0.70;;;;;;;13.59;40.77;101190.59;5031713;28;20064;-72
2022/03/18 01:35:02;;;;;;;6.13;1.20;;;;;;;13.56;40.62;101170.66;5032105;28;20132;-72
2022/03/18 01:37:29;;;;;;;3.53;1.40;;;;;;;13.60;40.71;101180.19;5031479;28;20551;-72
2022/03/18 01:39:56;;;;;;;2.70;1.20;;;;;;;13.72;40.66;101197.56;5017254;28;20077;-71
2022/03/18 01:42:22;;;;;;;5.20;1.67;;;;;;;13.58;40.94;101174.88;5022799;28;20476;-71
2022/03/18 01:44:49;;;;;;;4.67;1.40;;;;;;;13.56;40.66;101176.28;5031100;28;20200;-71
2022/03/18 01:47:16;;;;;;;4.73;1.83;;;;;;;13.55;40.58;101157.78;5029761;28;20053;-72
2022/03/18 01:49:43;;;;;;;4.73;1.40;;;;;;;13.65;40.64;101180.19;5024826;28;20062;-69
2022/03/18 01:52:11;;;;;;;6.27;1.53;;;;;;;13.55;40.98;101161.41;5028834;28;20136;-70
2022/03/18 01:54:45;;;;;;;5.80;0.93;;;;;;;13.64;40.81;101178.50;5031012;28;20049;-70
2022/03/18 01:57:18;;;;;;;11.03;1.50;;;;;;;13.58;40.83;101168.44;5021922;28;20054;-72
2022/03/18 01:59:46;;;;;;;3.63;1.03;;;;;;;13.49;40.82;101154.97;5027585;28;20475;-69
2022/03/18 02:02:14;;;;;;;2.77;1.43;;;;;;;13.48;40.77;101158.91;5033652;28;20107;-70
2022/03/18 02:04:43;;;;;;;4.13;1.03;;;;;;;13.62;40.90;101173.19;5032953;28;20046;-69
2022/03/18 02:07:13;;;;;;;4.93;1.33;;;;;;;13.58;40.77;101172.06;5025179;28;20144;-70
2022/03/18 02:09:40;;;;;;;2.03;1.20;;;;;;;13.52;40.97;101165.63;5031733;28;20132;-69
2022/03/18 02:12:09;;;;;;;5.17;1.50;;;;;;;13.50;40.75;101158.63;5021280;28;20136;-70
2022/03/18 02:14:37;;;;;;;2.80;0.80;;;;;;;13.63;40.89;101171.22;5020638;28;20056;-71
2022/03/18 02:17:06;;;;;;;4.77;1.10;;;;;;;13.42;40.82;101139.56;5030924;28;20085;-71
2022/03/18 02:19:35;;;;;;;8.77;1.57;;;;;;;13.54;40.94;101167.31;5023936;28;20103;-71
2022/03/18 02:22:12;;;;;;;3.73;1.47;;;;;;;13.55;40.76;101161.41;5026349;28;20140;-69
2022/03/18 02:24:41;;;;;;;5.30;1.10;;;;;;;13.56;40.89;101149.06;5028600;28;20049;-69
2022/03/18 02:27:08;;;;;;;4.70;1.17;;;;;;;13.57;40.87;101159.16;5026347;28;20474;-69
2022/03/18 02:29:35;;;;;;;4.00;1.10;;;;;;;13.48;40.95;101144.88;5032586;28;20567;-68
2022/03/18 02:32:04;;;;;;;5.10;1.20;;;;;;;13.43;40.86;101158.06;5025289;28;20077;-69
2022/03/18 02:34:32;;;;;;;1.10;0.60;;;;;;;13.32;40.99;101160.06;5030942;28;20073;-69
2022/03/18 02:36:59;;;;;;;3.07;0.97;;;;;;;13.09;40.81;101096.16;5031641;28;20081;-69
2022/03/18 02:39:27;;;;;;;4.97;1.67;;;;;;;13.60;40.73;101150.16;5022723;28;20136;-69
2022/03/18 02:41:54;;;;;;;5.10;0.93;;;;;;;13.40;40.80;101119.38;5029787;28;20508;-69
2022/03/18 02:44:21;;;;;;;3.77;1.37;;;;;;;13.68;40.70;101163.63;5028896;28;20053;-70
2022/03/18 02:46:49;;;;;;;2.67;1.23;;;;;;;13.73;40.74;101148.72;5026717;28;20528;-70
2022/03/18 02:49:16;;;;;;;3.50;1.00;;;;;;;13.71;40.74;101151.00;5027189;28;20520;-69
2022/03/18 02:51:43;;;;;;;2.63;0.87;;;;;;;13.77;40.82;101149.81;5031983;28;20092;-69
2022/03/18 02:54:09;;;;;;;6.93;1.67;;;;;;;13.68;40.59;101151.56;5028455;28;20132;-69
2022/03/18 02:56:36;;;;;;;7.27;1.43;;;;;;;13.70;41.10;101147.31;5023024;28;20903;-68
2022/03/18 02:59:03;;;;;;;5.10;1.13;;;;;;;13.54;41.17;101133.63;5029764;28;20584;-69
2022/03/18 03:01:31;;;;;;;3.83;1.53;;;;;;;13.10;41.06;101067.00;5028388;28;20448;-71
2022/03/18 03:03:59;;;;;;;1.50;0.50;;;;;;;13.08;41.33;101063.63;5028864;28;20497;-71
2022/03/18 03:09:16;;;;;;;3.87;0.93;;;;;;;12.72;41.55;101022.53;5032467;28;20045;-71
2022/03/18 03:11:44;;;;;;;2.67;0.83;;;;;;;13.09;41.95;101113.81;5025212;28;20052;-70
2022/03/18 03:14:12;;;;;;;7.93;1.00;;;;;;;13.19;41.96;101113.78;5029961;28;20132;-72
2022/03/18 03:16:39;;;;;;;4.87;0.70;;;;;;;13.14;41.76;101110.19;5023103;28;20136;-69
2022/03/18 03:19:06;;;;;;;1.20;0.63;;;;;;;12.86;41.92;101059.22;5028407;28;20123;-70
2022/03/18 03:21:34;;;;;;;3.33;1.00;;;;;;;13.20;41.68;101093.06;5027273;28;20089;-70
2022/03/18 03:24:01;;;;;;;6.23;1.47;;;;;;;13.21;41.78;101096.69;5028131;28;20069;-71
2022/03/18 03:26:28;;;;;;;1.80;0.90;;;;;;;13.31;41.55;101085.47;5026136;28;20132;-70
2022/03/18 03:28:55;;;;;;;1.07;0.70;;;;;;;13.46;41.57;101121.88;5021348;28;20545;-71
2022/03/18 03:31:22;;;;;;;1.40;0.53;;;;;;;13.39;41.66;101143.78;5021054;28;20589;-70
2022/03/18 03:33:49;;;;;;;1.70;0.50;;;;;;;13.26;41.67;101111.59;5029326;28;20099;-72
2022/03/18 03:36:16;;;;;;;0.50;0.50;;;;;;;13.21;41.47;101089.13;5033892;28;20144;-72
2022/03/18 03:38:43;;;;;;;5.60;0.80;;;;;;;13.16;41.47;101103.16;5027781;28;20080;-70
2022/03/18 03:41:10;;;;;;;5.53;0.73;;;;;;;13.15;41.45;101104.28;5029983;28;20084;-70
2022/03/18 03:43:38;;;;;;;0.83;0.43;;;;;;;13.04;41.63;101100.66;5032540;28;20571;-70
2022/03/18 03:46:05;;;;;;;1.27;0.50;;;;;;;13.14;41.66;101108.22;5019639;28;20492;-70
2022/03/18 03:48:32;;;;;;;0.80;0.60;;;;;;;12.87;41.89;101076.88;5027110;28;20136;-70
2022/03/18 03:50:59;;;;;;;3.50;1.10;;;;;;;13.05;41.68;101107.94;5026099;28;20542;-70
2022/03/18 03:53:26;;;;;;;3.47;1.30;;;;;;;13.04;41.42;101128.69;5023003;28;20184;-70
2022/03/18 03:55:54;;;;;;;0.67;0.67;;;;;;;13.07;41.55;101120.84;5024926;28;20139;-69
2022/03/18 03:58:21;;;;;;;1.07;0.33;;;;;;;12.77;41.72;101114.16;5029170;28;20091;-69
2022/03/18 04:00:48;;;;;;;9.67;8.97;;;;;;;12.87;41.55;101119.75;5023905;28;20132;-69
2022/03/18 04:03:15;;;;;;;8.83;8.20;;;;;;;13.24;41.00;101108.22;5028606;28;20435;-71
2022/03/18 04:05:42;;;;;;;9.07;8.47;;;;;;;12.86;41.01;101084.44;5032425;28;20077;-69
2022/03/18 04:08:08;;;;;;;7.73;7.37;;;;;;;13.04;40.93;101130.66;5030996;28;20081;-69
2022/03/18 04:10:42;;;;;;;8.20;7.70;;;;;;;13.02;41.03;101093.63;5028844;28;20107;-70
2022/03/18 04:13:10;;;;;;;8.30;7.80;;;;;;;13.02;40.99;101086.09;5031238;28;20059;-69
2022/03/18 04:15:38;;;;;;;8.30;7.90;;;;;;;13.20;40.94;101128.69;5034514;28;20497;-70
2022/03/18 04:18:05;;;;;;;8.17;7.67;;;;;;;13.31;40.76;101119.13;5032705;28;20412;-70
2022/03/18 04:20:33;;;;;;;8.70;7.67;;;;;;;13.14;41.14;101115.78;5030655;28;20564;-70
2022/03/18 04:23:01;;;;;;;8.87;8.37;;;;;;;12.91;41.49;101104.03;5022665;28;20516;-70
2022/03/18 04:25:30;;;;;;;8.30;7.53;;;;;;;12.78;41.55;101076.59;5028668;28;20132;-71
2022/03/18 04:28:00;;;;;;;8.75;8.07;;;;;;;12.70;41.82;101078.00;5034639;28;20057;-71
2022/03/18 04:30:27;;;;;;;7.75;7.35;;;;;;;13.18;41.01;101116.88;5032813;28;20210;-71
2022/03/18 04:32:54;;;;;;;7.47;7.17;;;;;;;13.08;41.44;101114.09;5026718;28;20493;-71
2022/03/18 04:35:21;;;;;;;8.27;7.80;;;;;;;12.90;41.68;101116.38;5024634;28;20077;-72
2022/03/18 04:37:49;;;;;;;8.33;7.80;;;;;;;12.94;41.80;101120.28;5028309;28;20382;-68
2022/03/18 04:40:16;;;;;;;7.97;7.20;;;;;;;12.88;42.05;101131.81;5029152;28;20137;-68
2022/03/18 04:42:46;;;;;;;7.93;7.43;;;;;;;12.66;42.33;101124.53;5026978;28;20136;-70
2022/03/18 04:45:16;;;;;;;8.43;7.60;;;;;;;12.59;42.56;101111.94;5029084;28;20192;-69
2022/03/18 04:47:43;;;;;;;8.20;7.60;;;;;;;12.68;42.43;101118.63;5026399;28;20412;-69
2022/03/18 04:50:10;;;;;;;7.63;7.03;;;;;;;12.86;42.62;101151.72;5029464;28;20133;-68
2022/03/18 04:52:37;;;;;;;8.60;7.70;;;;;;;12.65;42.90;101119.19;5029886;28;20103;-71
2022/03/18 04:55:06;;;;;;;7.80;7.40;;;;;;;12.88;42.76;101134.59;5030057;28;20077;-70
2022/03/18 04:57:33;;;;;;;8.10;7.40;;;;;;;12.55;42.85;101078.88;5030193;28;20148;-68
2022/03/18 05:00:00;;;;;;;8.03;7.53;;;;;;;12.32;43.46;101096.22;5022656;28;20152;-68
2022/03/18 05:02:28;;;;;;;7.50;7.10;;;;;;;12.44;43.91;101116.38;5028485;28;20459;-68
2022/03/18 05:04:55;;;;;;;7.90;7.50;;;;;;;12.34;44.10;101096.78;5031400;28;20044;-69
2022/03/18 05:07:24;;;;;;;8.50;7.93;;;;;;;12.44;44.59;101133.19;5027492;28;20171;-68
2022/03/18 05:09:50;;;;;;;7.90;7.30;;;;;;;12.19;44.64;101103.22;5040436;28;20575;-68
2022/03/18 05:12:18;;;;;;;8.60;7.90;;;;;;;12.14;45.21;101122.81;5026756;28;20579;-68
2022/03/18 05:14:50;;;;;;;8.47;7.97;;;;;;;12.22;45.23;101110.22;5028919;28;20069;-70
2022/03/18 05:17:17;;;;;;;9.03;8.17;;;;;;;12.17;45.43;101129.81;5026550;28;20128;-71
2022/03/18 05:19:44;;;;;;;9.57;8.20;;;;;;;11.96;45.66;101098.13;5030465;28;20156;-71
2022/03/18 05:22:11;;;;;;;9.23;8.63;;;;;;;12.01;45.70;101100.97;5026658;28;20061;-71
2022/03/18 05:24:39;;;;;;;8.10;7.47;;;;;;;12.07;45.75;101128.69;5028305;28;20077;-70
2022/03/18 05:27:05;;;;;;;8.37;7.77;;;;;;;12.26;45.61;101125.34;5031545;28;20196;-71
2022/03/18 05:29:32;;;;;;;8.40;7.80;;;;;;;11.84;45.69;101081.59;5028826;28;20136;-70
2022/03/18 05:32:00;;;;;;;8.27;7.87;;;;;;;11.98;45.86;101113.53;5026110;28;20474;-71
2022/03/18 05:34:28;;;;;;;7.77;7.37;;;;;;;12.05;45.96;101116.91;5027651;28;20148;-70
2022/03/18 05:36:55;;;;;;;8.97;7.87;;;;;;;12.11;45.86;101128.97;5033142;28;20058;-69
2022/03/18 05:39:22;;;;;;;7.90;7.40;;;;;;;12.07;46.33;101127.84;5032473;28;20049;-70
2022/03/18 05:41:49;;;;;;;7.90;7.47;;;;;;;11.93;46.58;101119.13;5029102;28;20500;-70
2022/03/18 05:44:16;;;;;;;8.13;7.53;;;;;;;12.03;46.53;101127.56;5023567;28;20490;-69
2022/03/18 05:46:44;;;;;;;8.47;7.90;;;;;;;12.05;46.57;101114.13;5026880;28;20087;-70
2022/03/18 05:49:12;;;;;;;7.87;7.47;;;;;;;11.85;46.92;101105.66;5027487;28;20084;-69
2022/03/18 05:51:39;;;;;;;7.63;7.03;;;;;;;11.76;47.27;101122.13;5027420;28;20054;-70
2022/03/18 05:54:06;;;;;;;7.93;7.43;;;;;;;11.74;47.20;101101.97;5019580;28;20085;-69
2022/03/18 05:59:31;;;;;;;7.60;7.20;;;;;;;11.79;47.56;101135.56;5030699;28;20107;-70
2022/03/18 06:01:59;;;;;;;7.90;7.50;;;;;;;11.83;47.71;101133.91;5027466;28;20144;-70
2022/03/18 06:04:28;;;;;;;8.60;7.43;;;;;;;11.79;47.89;101121.56;5023162;28;20050;-70
2022/03/18 06:06:55;;;;;;;7.40;7.00;;;;;;;11.93;47.77;101154.66;5016517;28;20085;-70
2022/03/18 06:12:08;;;;;;;7.30;6.90;;;;;;;11.63;47.91;101083.47;5030018;28;20077;-69
2022/03/18 06:14:35;;;;;;;8.47;7.87;;;;;;;11.88;47.95;101158.28;5023654;28;20140;-69
2022/03/18 06:17:04;;;;;;;8.17;7.57;;;;;;;12.04;47.74;101154.44;5027655;28;20081;-69
2022/03/18 06:19:34;;;;;;;7.80;7.30;;;;;;;11.98;48.29;101121.94;5024544;28;20055;-69
2022/03/18 06:22:01;;;;;;;7.40;7.00;;;;;;;12.01;47.88;101154.97;5025535;28;20560;-69
2022/03/18 06:24:29;;;;;;;8.57;7.60;;;;;;;11.82;48.35;101125.78;5030171;28;20129;-69
2022/03/18 06:26:57;;;;;;;7.33;6.93;;;;;;;11.75;48.28;101120.44;5027800;28;20088;-69
2022/03/18 06:29:24;;;;;;;9.07;8.00;;;;;;;11.85;48.06;101119.66;5023154;28;20057;-69
2022/03/18 06:31:51;;;;;;;21.40;7.30;;;;;;;11.61;48.57;101092.13;5028229;28;20085;-70
2022/03/18 06:34:20;;;;;;;7.57;7.13;;;;;;;11.80;48.75;101116.81;5025120;28;20056;-69
2022/03/18 06:36:49;;;;;;;8.47;7.83;;;;;;;11.70;48.68;101111.19;5026944;28;20136;-69
2022/03/18 06:39:16;;;;;;;7.30;6.90;;;;;;;11.78;48.83;101152.63;5026154;28;20474;-69
2022/03/18 06:41:43;;;;;;;7.90;7.30;;;;;;;11.92;48.48;101142.63;5025625;28;20052;-68
2022/03/18 06:44:10;;;;;;;8.00;7.40;;;;;;;11.71;48.86;101136.09;5024635;28;20143;-68
2022/03/18 06:46:37;;;;;;;7.80;7.40;;;;;;;11.63;49.28;101134.66;5024264;28;20140;-67
2022/03/18 06:49:06;;;;;;;8.10;7.70;;;;;;;11.38;49.01;101076.69;5025332;28;20128;-68
2022/03/18 06:51:34;;;;;;;8.13;7.53;;;;;;;11.57;48.67;101101.34;5022581;28;20170;-67
2022/03/18 06:54:01;;;;;;;8.47;7.97;;;;;;;11.72;49.23;101153.72;5026573;28;20137;-69
2022/03/18 06:56:30;;;;;;;10.73;10.17;;;;;;;11.84;49.13;101157.16;5024494;28;20139;-68
2022/03/18 06:58:57;;;;;;;6.87;6.57;;;;;;;11.61;49.55;101166.81;5024501;28;20123;-69
2022/03/18 07:01:24;;;;;;;8.13;7.50;;;;;;;11.65;49.49;101159.56;5023956;28;20535;-69
2022/03/18 07:03:53;;;;;;;7.70;7.30;;;;;;;11.70;49.57;101161.56;5026169;28;20092;-69
2022/03/18 07:06:20;;;;;;;7.60;7.20;;;;;;;11.67;49.51;101162.09;5021613;28;20084;-69
2022/03/18 07:08:47;;;;;;;8.73;7.50;;;;;;;11.60;49.43;101135.22;5023937;28;20096;-67
2022/03/18 07:11:14;;;;;;;8.60;7.90;;;;;;;11.88;49.15;101160.25;5021899;28;20103;-68
2022/03/18 07:13:43;;;;;;;8.57;8.10;;;;;;;11.97;48.98;101165.06;5031005;28;20136;-68
2022/03/18 07:18:55;;;;;;;8.27;7.67;;;;;;;11.77;48.98;101100.59;5028818;28;20408;-68
2022/03/18 07:21:22;;;;;;;7.80;7.17;;;;;;;11.87;48.67;101111.00;5028653;28;20047;-68
2022/03/18 07:23:49;;;;;;;8.03;7.57;;;;;;;12.24;48.50;101158.38;5028154;28;20483;-69
2022/03/18 07:26:16;;;;;;;8.17;7.77;;;;;;;12.62;48.07;101157.03;5026925;28;20928;-68
2022/03/18 07:28:43;;;;;;;9.50;8.77;;;;;;;12.61;47.46;101129.28;5029412;28;20569;-68
2022/03/18 07:31:10;;;;;;;8.17;7.67;;;;;;;12.81;47.46;101143.28;5021045;28;20136;-67
2022/03/18 07:33:37;;;;;;;7.87;7.47;;;;;;;12.71;47.57;101149.75;5026529;28;20057;-68
2022/03/18 07:36:05;;;;;;;9.23;8.50;;;;;;;12.76;47.24;101115.28;5024354;28;20133;-67
2022/03/18 07:38:32;;;;;;;8.13;7.73;;;;;;;13.07;46.80;101129.25;5023303;28;20102;-67
2022/03/18 07:40:59;;;;;;;7.53;7.13;;;;;;;13.17;46.37;101140.47;5024283;28;20136;-68
2022/03/18 07:43:26;;;;;;;12.83;7.80;;;;;;;13.32;46.20;101140.44;5025430;28;20135;-67
2022/03/18 07:45:52;;;;;;;7.83;7.37;;;;;;;13.31;46.19;101154.75;5020470;28;20133;-67
2022/03/18 07:48:22;;;;;;;9.57;9.17;;;;;;;13.39;46.24;101152.19;5024532;28;20147;-72
2022/03/18 07:50:48;;;;;;;9.43;8.90;;;;;;;13.74;45.90;101161.63;5027878;28;20140;-72
2022/03/18 07:53:15;;;;;;;8.97;8.37;;;;;;;13.89;44.93;101149.50;5030194;28;20476;-73
2022/03/18 07:55:42;;;;;;;7.83;7.43;;;;;;;14.09;44.69;101124.13;5027166;28;20536;-72
2022/03/18 07:58:09;;;;;;;8.63;7.93;;;;;;;14.47;44.32;101189.03;5025239;28;20132;-72
2022/03/18 08:00:36;;;;;;;8.10;7.70;;;;;;;14.52;44.11;101180.59;5026205;28;20124;-71
2022/03/18 08:03:03;;;;;;;10.10;9.27;;;;;;;14.41;43.70;101115.16;5024754;28;20485;-72
2022/03/18 08:05:30;;;;;;;10.33;9.83;;;;;;;14.78;43.52;101178.44;5027689;28;20045;-71
2022/03/18 08:07:58;;;;;;;12.60;11.70;;;;;;;14.87;43.21;101151.38;5030488;28;20052;-72
2022/03/18 08:10:25;;;;;;;11.10;10.40;;;;;;;15.06;42.71;101173.13;5032533;28;20124;-71
2022/03/18 08:12:52;;;;;;;8.03;7.63;;;;;;;15.34;42.60;101183.53;5029581;28;20053;-72
2022/03/18 08:15:20;;;;;;;8.20;7.50;;;;;;;15.20;42.30;101182.56;5027801;28;20112;-72
2022/03/18 08:17:52;;;;;;;9.40;8.57;;;;;;;15.27;42.06;101168.97;5026130;28;20050;-72
2022/03/18 08:20:20;;;;;;;8.97;8.37;;;;;;;15.44;41.75;101168.53;5017729;28;20046;-68
2022/03/18 08:22:49;;;;;;;7.90;7.50;;;;;;;15.63;41.82;101180.69;5022675;28;20050;-68
2022/03/18 08:25:16;;;;;;;10.40;9.90;;;;;;;15.72;41.46;101171.59;5020850;28;20049;-68
2022/03/18 08:27:43;;;;;;;8.23;7.83;;;;;;;15.97;40.97;101184.56;5027814;28;20125;-68
2022/03/18 08:30:13;;;;;;;9.10;8.30;;;;;;;15.90;41.16;101203.75;5022887;28;20473;-68
2022/03/18 08:32:40;;;;;;;11.07;10.23;;;;;;;15.64;41.15;101187.16;5025260;28;20057;-68
2022/03/18 08:35:08;;;;;;;7.90;7.23;;;;;;;15.49;41.37;101192.97;5021898;28;20069;-67
2022/03/18 08:40:22;;;;;;;7.93;7.53;;;;;;;15.70;41.12;101197.25;5022610;28;20077;-68
2022/03/18 08:42:50;;;;;;;8.80;8.20;;;;;;;15.65;41.45;101180.38;5026196;28;20069;-68
2022/03/18 08:45:18;;;;;;;10.13;9.53;;;;;;;15.92;41.10;101196.69;5021324;28;20663;-68
2022/03/18 08:47:45;;;;;;;8.30;7.87;;;;;;;15.69;40.89;101164.63;5021508;28;20077;-68
2022/03/18 08:50:14;;;;;;;9.07;8.27;;;;;;;15.87;41.21;101175.09;5026667;28;20107;-68
2022/03/18 08:52:41;;;;;;;8.23;7.80;;;;;;;15.86;40.77;101148.06;5029672;28;20045;-68
2022/03/18 08:55:09;;;;;;;8.63;7.93;;;;;;;16.14;40.47;101182.06;5022243;28;20584;-69
2022/03/18 08:57:37;;;;;;;8.18;7.38;;;;;;;16.34;40.05;101195.88;5023213;28;20054;-68
2022/03/18 09:00:07;;;;;;;9.20;8.32;;;;;;;16.38;39.99;101176.38;5030765;28;20050;-68
2022/03/18 09:02:38;;;;;;;8.30;7.88;;;;;;;16.51;39.83;101172.78;5026917;28;20095;-68
2022/03/18 09:05:07;;;;;;;8.63;8.23;;;;;;;16.29;39.80;101130.28;5028083;28;20107;-67
2022/03/18 09:07:36;;;;;;;7.93;7.60;;;;;;;16.57;39.84;101154.63;5028473;28;20049;-67
2022/03/18 09:10:04;;;;;;;8.43;8.02;;;;;;;16.68;39.51;101188.28;5030430;28;20504;-67
2022/03/18 09:12:32;;;;;;;9.07;8.57;;;;;;;16.95;39.34;101188.44;5025100;28;20147;-68
2022/03/18 09:14:59;;;;;;;7.90;7.50;;;;;;;17.25;39.08;101180.59;5028323;28;20053;-67
2022/03/18 09:17:26;;;;;;;9.07;8.30;;;;;;;17.40;38.57;101154.03;5033945;28;20049;-67
2022/03/18 09:19:54;;;;;;;8.95;8.35;;;;;;;17.79;37.77;101183.81;5031803;28;20136;-67
2022/03/18 09:22:21;;;;;;;9.02;8.38;;;;;;;17.53;37.88;101173.00;5031538;28;20124;-67
2022/03/18 09:24:48;;;;;;;9.35;8.48;;;;;;;17.55;38.59;101184.81;5026584;28;20128;-67
2022/03/18 09:27:16;;;;;;;8.63;8.13;;;;;;;18.23;37.70;101195.28;5031445;28;20140;-68
2022/03/18 09:29:43;;;;;;;10.20;9.40;;;;;;;18.13;37.31;101184.22;5031810;28;20430;-68
2022/03/18 09:32:10;;;;;;;8.80;8.40;;;;;;;18.05;37.23;101204.75;5033953;28;20574;-68
2022/03/18 09:34:37;;;;;;;10.02;9.45;;;;;;;17.92;37.67;101192.31;5030669;28;20080;-69
2022/03/18 09:37:05;;;;;;;11.60;10.65;;;;;;;18.03;37.54;101170.31;5028769;28;20053;-69
2022/03/18 09:39:32;;;;;;;9.00;8.40;;;;;;;18.06;37.23;101166.03;5030368;28;20045;-68
2022/03/18 09:42:03;;;;;;;10.00;9.35;;;;;;;17.87;37.39;101174.59;5032891;28;20523;-68
2022/03/18 09:44:36;;;;;;;9.20;8.60;;;;;;;18.13;37.64;101155.94;5031461;28;20134;-67
2022/03/18 09:47:05;;;;;;;8.25;7.80;;;;;;;18.57;36.86;101181.81;5030650;28;20049;-68
2022/03/18 09:49:33;;;;;;;9.90;9.18;;;;;;;18.66;36.41;101149.59;5027746;28;20061;-68
2022/03/18 09:52:01;;;;;;;8.98;8.57;;;;;;;18.82;36.32;101152.91;5027712;28;20132;-68
2022/03/18 09:54:29;;;;;;;9.93;8.88;;;;;;;19.08;36.02;101186.25;5027635;28;20136;-68
2022/03/18 09:56:57;;;;;;;8.75;8.15;;;;;;;19.24;36.09;101189.50;5028553;28;20107;-68
2022/03/18 09:59:27;;;;;;;9.52;8.68;;;;;;;19.78;35.83;101161.97;5028179;28;20132;-68
2022/03/18 10:02:29;;;;;;;8.93;8.43;;;;;;;20.26;35.17;101158.25;5027274;28;20482;-68
2022/03/18 10:05:08;;;;;;;9.13;8.52;;;;;;;20.58;34.21;101152.13;5023076;28;20402;-68
2022/03/18 10:07:35;;;;;;;8.77;8.27;;;;;;;20.42;33.99;101147.25;5023623;28;20057;-68
2022/03/18 10:10:15;;;;;;;9.60;8.90;;;;;;;20.52;34.01;101139.28;5024420;28;20450;-68
2022/03/18 10:12:47;;;;;;;10.50;8.40;;;;;;;20.92;34.07;101121.19;5026654;28;20469;-68
2022/03/18 10:15:19;;;;;;;15.13;8.80;;;;;;;21.72;33.61;101147.03;5028364;28;20057;-68
2022/03/18 10:17:47;;;;;;;10.52;8.70;;;;;;;22.09;32.55;101142.50;5026180;28;20566;-68
2022/03/18 10:20:34;;;;;;;11.75;9.70;;;;;;;22.38;32.73;101138.78;5025845;28;20072;-68
2022/03/18 10:23:15;;;;;;;10.70;9.80;;;;;;;23.15;32.44;101139.28;5026017;28;20207;-67
2022/03/18 10:25:55;;;;;;;6.45;3.63;;;;;;;22.60;30.82;101131.94;5024265;28;20140;-68
2022/03/18 10:28:36;;;;;;;5.20;2.20;;;;;;;22.45;31.74;101143.91;5025302;28;20504;-68
2022/03/18 10:31:19;;;;;;;4.78;1.42;;;;;;;22.16;31.28;101139.13;5023062;28;20055;-72
2022/03/18 10:37:04;;;;;;;5.40;1.92;;;;;;;22.21;31.87;101131.22;5023348;28;20053;-72
2022/03/18 10:39:38;;;;;;;5.20;1.67;;;;;;;23.09;31.42;101146.38;5027883;28;20401;-70
2022/03/18 10:42:13;;;;;;;5.60;1.52;;;;;;;23.53;30.88;101135.31;5030808;28;20085;-72
2022/03/18 10:44:47;;;;;;;2.45;1.27;;;;;;;23.21;30.17;101134.19;5026231;28;20135;-72
2022/03/18 10:47:35;;;;;;;4.97;1.85;;;;;;;23.00;30.55;101130.56;5026776;28;20045;-72
2022/03/18 10:50:11;;;;;;;1.23;1.13;;;;;;;22.79;30.86;101125.72;5026856;28;20077;-72
2022/03/18 10:52:46;;;;;;;2.15;1.42;;;;;;;22.53;31.11;101128.81;5027001;28;20046;-72
2022/03/18 10:55:23;;;;;;;2.13;1.20;;;;;;;22.53;31.19;101113.72;5024953;28;20136;-71
2022/03/18 10:57:53;;;;;;;5.10;1.80;;;;;;;22.85;30.93;101101.53;5024569;28;20132;-72
2022/03/18 11:00:21;;;;;;;2.50;1.15;;;;;;;23.17;30.47;101099.03;5025708;28;20055;-72
2022/03/18 11:02:49;;;;;;;9.45;2.55;;;;;;;23.37;29.99;101120.09;5023566;28;20726;-71
2022/03/18 11:05:20;;;;;;;2.33;1.65;;;;;;;23.93;30.39;101113.84;5024531;28;20057;-71
2022/03/18 11:07:50;;;;;;;3.13;1.52;;;;;;;23.65;29.50;101081.13;5027883;28;20041;-70
2022/03/18 11:13:07;;;;;;;3.20;1.85;;;;;;;23.93;29.68;101108.13;5028510;28;20144;-70
2022/03/18 11:15:39;;;;;;;5.57;1.77;;;;;;;23.80;29.74;101098.78;5034442;28;20552;-70
2022/03/18 11:18:11;;;;;;;3.47;1.73;;;;;;;24.01;29.57;101102.31;5031045;28;20451;-69
2022/03/18 11:20:43;;;;;;;5.47;2.10;;;;;;;24.27;29.47;101086.78;5037560;28;20052;-69
2022/03/18 11:23:19;;;;;;;1.60;1.30;;;;;;;23.53;28.91;101063.22;5024912;28;20053;-70
2022/03/18 11:25:52;;;;;;;4.53;1.60;;;;;;;23.84;29.39;101089.13;5028552;28;20073;-70
2022/03/18 11:28:20;;;;;;;7.72;2.38;;;;;;;24.00;29.08;101069.28;5026401;28;20538;-70
2022/03/18 11:31:00;;;;;;;7.30;1.77;;;;;;;24.81;28.71;101084.34;5017992;28;20046;-70
2022/03/18 11:33:27;;;;;;;;;;;;;;;24.52;28.54;101087.59;5024031;28;20073;-70
2022/03/18 11:35:54;;;;;;;4.28;2.17;;;;;;;24.42;28.62;101082.41;5027637;28;19928;-68
2022/03/18 11:38:31;;;;;;;2.95;1.60;;;;;;;24.01;28.69;101081.50;5031225;28;20091;-69
2022/03/18 11:40:59;;;;;;;4.25;1.75;;;;;;;23.97;28.74;101089.97;5025853;28;20101;-70
2022/03/18 11:43:52;;;;;;;2.95;1.55;;;;;;;24.29;28.90;101079.53;5024474;28;20062;-70
2022/03/18 11:46:21;;;;;;;1.88;1.40;;;;;;;24.40;28.30;101054.19;5022324;28;20108;-71
2022/03/18 11:48:51;;;;;;;;;;;;;;;23.95;29.01;101085.78;5023340;28;20091;-68
2022/03/18 11:51:36;;;;;;;1.85;1.38;;;;;;;24.26;28.46;101077.41;5029822;28;20024;-69
2022/03/18 11:54:07;;;;;;;2.00;1.50;;;;;;;24.37;28.50;101069.16;5019595;28;20108;-70
2022/03/18 11:56:55;;;;;;;4.57;1.33;;;;;;;24.76;28.12;101044.63;5024788;28;20100;-70